Time;durP1;ratioP1;P1;durP2;ratioP2;P2;SDS_P1;SDS_P2;PMS_P1;PMS_P2;Temp;Humidity;BMP_temperature;BMP_pressure;BME280_temperature;BME280_humidity;BME280_pressure;Samples;Min_cycle;Max_cycle;Signal;HPM_P1;HPM_P2
2023/05/30 00:01:58;;;;;;;17.00;3.67;;;11.20;74.70;;;;;;4854892;29;49510;-83
2023/05/30 00:04:24;;;;;;;18.20;3.45;;;11.20;75.00;;;;;;4877354;29;38693;-81
2023/05/30 00:07:00;;;;;;;13.52;2.60;;;11.10;75.10;;;;;;4895028;29;39224;-81
2023/05/30 00:09:27;;;;;;;14.10;3.20;;;11.10;76.80;;;;;;4881761;29;37309;-83
2023/05/30 00:11:56;;;;;;;16.00;3.60;;;11.10;77.00;;;;;;4896013;29;37050;-82
2023/05/30 00:14:31;;;;;;;12.05;3.65;;;11.10;79.00;;;;;;4888739;29;40538;-82
2023/05/30 00:17:08;;;;;;;19.08;3.67;;;11.10;84.10;;;;;;4885362;29;38927;-82
2023/05/30 00:19:35;;;;;;;13.20;3.55;;;11.00;87.60;;;;;;4885842;29;48881;-82
2023/05/30 00:22:07;;;;;;;11.18;3.33;;;11.00;85.50;;;;;;4897939;29;37773;-82
2023/05/30 00:24:46;;;;;;;15.68;3.63;;;11.00;86.80;;;;;;4898232;29;39165;-81
2023/05/30 00:27:14;;;;;;;17.40;3.50;;;11.00;88.50;;;;;;4873540;29;38322;-82
2023/05/30 00:29:41;;;;;;;15.18;3.05;;;11.00;90.40;;;;;;4900495;29;38888;-82
2023/05/30 00:32:16;;;;;;;14.43;3.00;;;11.00;91.60;;;;;;4890443;29;37948;-82
2023/05/30 00:34:44;;;;;;;16.25;3.85;;;11.00;93.00;;;;;;4905619;29;38952;-82
2023/05/30 00:37:11;;;;;;;17.58;3.58;;;10.90;91.90;;;;;;4850443;29;37449;-81
2023/05/30 00:39:38;;;;;;;18.02;3.28;;;11.00;92.60;;;;;;4885185;29;38878;-82
2023/05/30 00:42:07;;;;;;;16.55;3.75;;;11.10;93.40;;;;;;4889655;29;36679;-82
2023/05/30 00:44:35;;;;;;;16.75;3.72;;;11.10;93.70;;;;;;4876695;29;39642;-82
2023/05/30 00:47:02;;;;;;;15.95;3.88;;;11.10;92.10;;;;;;4901274;29;38760;-82
2023/05/30 00:49:29;;;;;;;23.42;4.35;;;11.20;92.70;;;;;;4881633;29;48824;-82
2023/05/30 00:52:08;;;;;;;16.23;3.45;;;11.20;91.20;;;;;;4884777;29;37801;-81
2023/05/30 00:54:36;;;;;;;14.00;3.95;;;11.20;91.10;;;;;;4894219;29;48624;-81
2023/05/30 00:57:07;;;;;;;15.45;3.47;;;11.20;91.30;;;;;;4868602;29;37393;-82
2023/05/30 00:59:35;;;;;;;12.32;3.80;;;11.20;93.10;;;;;;4869759;29;48660;-81
2023/05/30 01:02:02;;;;;;;21.38;4.40;;;11.30;94.20;;;;;;5361561;23;37526;-81
2023/05/30 01:04:29;;;;;;;19.63;3.95;;;11.30;92.80;;;;;;4886372;29;38117;-81
2023/05/30 01:06:55;;;;;;;17.65;3.63;;;11.30;94.50;;;;;;4921088;29;39976;-83
2023/05/30 01:09:23;;;;;;;10.90;3.22;;;11.30;93.30;;;;;;4907656;29;38592;-85
2023/05/30 01:12:06;;;;;;;13.13;3.53;;;11.20;90.60;;;;;;4901142;29;37620;-81
2023/05/30 01:14:52;;;;;;;22.27;4.22;;;11.30;90.50;;;;;;4898203;29;48074;-81
2023/05/30 01:17:54;;;;;;;19.02;4.00;;;11.20;88.60;;;;;;4903948;29;37940;-80
2023/05/30 01:20:24;;;;;;;19.45;3.35;;;11.20;90.30;;;;;;4837657;29;38212;-80
2023/05/30 01:22:54;;;;;;;15.30;3.42;;;11.20;90.60;;;;;;4852134;29;37315;-81
2023/05/30 01:25:55;;;;;;;17.27;3.83;;;11.20;89.20;;;;;;4914204;29;38735;-81
2023/05/30 01:28:24;;;;;;;19.48;3.60;;;11.20;92.20;;;;;;4902235;29;38155;-81
2023/05/30 01:30:52;;;;;;;14.10;3.65;;;11.20;91.60;;;;;;4916361;29;38665;-81
2023/05/30 01:33:26;;;;;;;16.48;3.75;;;11.20;92.50;;;;;;4899181;29;37800;-82
2023/05/30 01:36:00;;;;;;;15.07;3.22;;;11.20;91.80;;;;;;4900085;29;38492;-81
2023/05/30 01:38:26;;;;;;;18.42;4.47;;;11.20;93.00;;;;;;4911582;29;38172;-81
2023/05/30 01:41:21;;;;;;;18.50;3.70;;;11.20;91.00;;;;;;4910503;29;36903;-81
2023/05/30 01:44:25;;;;;;;15.70;3.38;;;11.20;90.50;;;;;;4907350;29;46851;-81
2023/05/30 01:47:03;;;;;;;15.00;3.40;;;11.20;93.20;;;;;;4898334;29;47392;-81
2023/05/30 01:49:50;;;;;;;15.05;3.35;;;11.30;94.30;;;;;;4913161;29;47511;-81
2023/05/30 01:52:20;;;;;;;14.25;3.28;;;11.20;90.60;;;;;;4888788;29;36891;-81
2023/05/30 01:55:02;;;;;;;15.98;3.72;;;11.30;86.20;;;;;;4910917;29;36239;-81
2023/05/30 01:57:30;;;;;;;25.25;4.30;;;11.30;84.90;;;;;;4910853;29;46965;-81
2023/05/30 01:59:59;;;;;;;19.95;3.63;;;11.20;84.50;;;;;;4893789;29;37515;-81
2023/05/30 02:02:25;;;;;;;17.10;3.30;;;11.20;86.80;;;;;;4902937;29;37214;-81
2023/05/30 02:04:51;;;;;;;14.00;3.28;;;11.20;89.60;;;;;;4873176;29;36495;-81
2023/05/30 02:07:17;;;;;;;16.00;2.95;;;11.30;91.80;;;;;;4886787;29;38664;-82
2023/05/30 02:09:44;;;;;;;17.83;3.80;;;11.30;90.70;;;;;;4887702;29;38679;-81
2023/05/30 02:12:10;;;;;;;17.33;3.58;;;11.30;88.10;;;;;;4897673;29;36807;-81
2023/05/30 02:14:37;;;;;;;17.88;3.47;;;11.30;90.70;;;;;;4877027;29;36925;-81
2023/05/30 02:17:03;;;;;;;14.45;3.20;;;11.30;90.70;;;;;;4885560;29;37777;-81
2023/05/30 02:19:29;;;;;;;10.38;3.28;;;11.30;90.80;;;;;;4892176;29;37322;-80
2023/05/30 02:21:56;;;;;;;18.58;3.97;;;11.30;85.60;;;;;;4891573;29;37167;-81
2023/05/30 02:24:22;;;;;;;10.98;3.08;;;11.40;92.00;;;;;;4885337;29;38033;-81
2023/05/30 02:26:48;;;;;;;18.67;4.47;;;11.30;88.50;;;;;;4873978;29;36709;-81
2023/05/30 02:29:15;;;;;;;15.65;3.58;;;11.30;95.30;;;;;;4890856;29;39088;-81
2023/05/30 02:31:41;;;;;;;17.08;3.75;;;11.20;90.80;;;;;;4874841;29;38266;-80
2023/05/30 02:34:07;;;;;;;14.52;3.42;;;11.10;87.90;;;;;;4868789;29;37063;-80
2023/05/30 02:36:33;;;;;;;17.58;3.67;;;11.10;89.50;;;;;;4861758;29;37945;-80
2023/05/30 02:39:07;;;;;;;12.90;3.35;;;11.10;90.80;;;;;;4886780;29;38701;-80
2023/05/30 02:41:36;;;;;;;19.75;3.70;;;11.10;95.60;;;;;;4889832;29;48995;-81
2023/05/30 02:44:03;;;;;;;24.15;4.50;;;11.10;94.60;;;;;;4894223;29;37461;-81
2023/05/30 02:46:30;;;;;;;11.93;3.47;;;11.10;91.20;;;;;;4878313;29;38546;-81
2023/05/30 02:48:57;;;;;;;15.55;3.22;;;11.10;92.30;;;;;;4890846;29;37924;-80
2023/05/30 02:51:23;;;;;;;17.63;3.30;;;11.10;92.30;;;;;;4883435;29;36954;-81
2023/05/30 02:53:49;;;;;;;19.13;4.13;;;11.10;92.80;;;;;;4867686;29;36098;-80
2023/05/30 02:56:15;;;;;;;15.05;3.40;;;11.10;92.30;;;;;;4885269;29;40111;-81
2023/05/30 02:58:41;;;;;;;17.50;4.18;;;11.10;93.30;;;;;;4872293;29;36808;-80
2023/05/30 03:01:07;;;;;;;14.27;3.22;;;11.00;90.70;;;;;;4867191;29;36561;-81
2023/05/30 03:03:34;;;;;;;15.35;3.67;;;11.10;93.10;;;;;;4879710;29;36176;-81
2023/05/30 03:06:01;;;;;;;17.77;3.90;;;11.00;92.30;;;;;;4890625;29;37676;-81
2023/05/30 03:08:28;;;;;;;19.02;4.28;;;11.00;91.90;;;;;;4887125;29;47143;-80
2023/05/30 03:10:54;;;;;;;15.10;3.72;;;11.00;91.60;;;;;;4893970;29;36735;-81
2023/05/30 03:13:21;;;;;;;11.48;3.13;;;11.00;93.20;;;;;;4902279;29;36890;-81
2023/05/30 03:15:48;;;;;;;23.05;4.00;;;11.00;94.50;;;;;;4902676;29;38331;-81
2023/05/30 03:18:14;;;;;;;18.17;3.83;;;11.10;96.60;;;;;;4903647;29;40071;-81
2023/05/30 03:20:40;;;;;;;14.35;3.53;;;11.10;95.50;;;;;;4890153;29;38189;-81
2023/05/30 03:23:07;;;;;;;13.85;4.13;;;11.10;91.70;;;;;;4901578;29;37088;-81
2023/05/30 03:25:34;;;;;;;19.33;3.92;;;11.00;92.20;;;;;;4899394;29;38902;-81
2023/05/30 03:28:05;;;;;;;20.35;4.88;;;11.00;93.70;;;;;;4902914;29;38339;-81
2023/05/30 03:30:35;;;;;;;15.07;3.72;;;11.00;93.50;;;;;;4905727;29;47172;-82
2023/05/30 03:33:01;;;;;;;14.43;3.63;;;11.10;95.70;;;;;;4894178;29;36765;-81
2023/05/30 03:35:27;;;;;;;12.85;3.72;;;11.10;96.80;;;;;;4904233;29;47130;-81
2023/05/30 03:38:03;;;;;;;11.70;3.53;;;11.20;97.80;;;;;;4915820;29;38494;-81
2023/05/30 03:40:30;;;;;;;19.30;3.63;;;11.10;89.20;;;;;;4894152;29;47106;-81
2023/05/30 03:42:59;;;;;;;16.95;4.32;;;11.10;82.90;;;;;;4888595;29;35578;-82
2023/05/30 03:45:26;;;;;;;15.75;3.88;;;11.10;82.40;;;;;;4906911;29;38775;-81
2023/05/30 03:47:52;;;;;;;10.57;4.20;;;11.10;84.20;;;;;;4908035;29;37943;-80
2023/05/30 03:50:18;;;;;;;13.07;3.83;;;11.20;92.70;;;;;;4917872;29;38404;-80
2023/05/30 03:52:44;;;;;;;13.32;3.40;;;11.10;92.00;;;;;;4916693;29;36252;-80
2023/05/30 03:55:12;;;;;;;9.25;3.00;;;11.10;89.60;;;;;;4906729;29;38882;-81
2023/05/30 03:57:38;;;;;;;14.40;4.78;;;11.20;94.20;;;;;;4896239;29;38320;-81
2023/05/30 04:00:04;;;;;;;15.77;3.40;;;11.20;94.30;;;;;;4897898;29;36931;-81
2023/05/30 04:02:31;;;;;;;15.63;3.90;;;11.20;91.60;;;;;;4910139;29;36949;-81
2023/05/30 04:04:57;;;;;;;14.10;3.78;;;11.30;92.20;;;;;;4895515;29;36383;-81
2023/05/30 04:07:27;;;;;;;13.70;3.47;;;11.30;90.70;;;;;;4881018;29;37169;-81
2023/05/30 04:09:53;;;;;;;15.40;3.50;;;11.30;84.20;;;;;;4878267;29;38194;-81
2023/05/30 04:12:19;;;;;;;14.27;3.53;;;11.30;87.70;;;;;;4894116;29;36836;-81
2023/05/30 04:14:45;;;;;;;12.45;4.28;;;11.30;78.80;;;;;;4891004;29;40322;-81
2023/05/30 04:17:11;;;;;;;9.98;3.40;;;11.40;79.40;;;;;;4891999;29;38269;-81
2023/05/30 04:19:37;;;;;;;16.27;4.45;;;11.50;80.50;;;;;;4897029;29;38152;-81
2023/05/30 04:22:08;;;;;;;10.63;3.95;;;11.40;72.50;;;;;;4889398;29;36626;-81
2023/05/30 04:24:34;;;;;;;10.85;3.58;;;11.50;71.60;;;;;;4883118;29;40272;-81
2023/05/30 04:27:00;;;;;;;9.90;3.47;;;11.50;63.50;;;;;;4889990;29;37574;-81
2023/05/30 04:29:26;;;;;;;10.68;3.40;;;11.50;67.60;;;;;;4895891;29;38347;-79
2023/05/30 04:31:52;;;;;;;13.52;4.28;;;11.50;63.10;;;;;;4877811;29;35945;-80
2023/05/30 04:34:18;;;;;;;16.08;4.10;;;11.60;77.70;;;;;;4881229;29;37181;-80
2023/05/30 04:36:53;;;;;;;12.65;4.28;;;11.50;52.40;;;;;;4868905;29;38172;-81
2023/05/30 04:39:20;;;;;;;14.25;4.20;;;11.50;41.40;;;;;;4896520;29;38149;-82
2023/05/30 04:41:47;;;;;;;11.02;3.83;;;11.50;43.60;;;;;;4890107;29;38498;-80
2023/05/30 04:44:13;;;;;;;12.90;4.03;;;11.50;37.20;;;;;;4893308;29;38255;-81
2023/05/30 04:46:40;;;;;;;13.55;3.35;;;11.60;35.20;;;;;;4891358;29;38397;-81
2023/05/30 04:49:06;;;;;;;9.65;3.38;;;11.50;36.90;;;;;;4886410;29;39574;-81
2023/05/30 04:51:33;;;;;;;12.98;3.90;;;11.50;37.40;;;;;;4874808;29;36175;-80
2023/05/30 04:54:00;;;;;;;9.40;3.30;;;11.50;38.70;;;;;;4881842;29;37743;-80
2023/05/30 04:56:26;;;;;;;11.27;3.58;;;11.60;51.90;;;;;;4889085;29;46922;-81
2023/05/30 04:58:52;;;;;;;8.48;3.30;;;11.60;40.70;;;;;;4883155;29;39026;-81
2023/05/30 05:01:26;;;;;;;9.48;3.60;;;11.60;53.30;;;;;;4896402;29;37377;-82
2023/05/30 05:03:52;;;;;;;13.75;3.60;;;11.60;38.70;;;;;;4900353;29;37495;-82
2023/05/30 05:06:42;;;;;;;18.27;3.67;;;11.60;35.90;;;;;;4904226;29;39914;-82
2023/05/30 05:09:10;;;;;;;12.02;3.30;;;11.60;32.70;;;;;;4901262;29;39741;-83
2023/05/30 05:11:37;;;;;;;10.68;3.20;;;11.50;32.10;;;;;;4900374;29;37143;-81
2023/05/30 05:14:22;;;;;;;9.57;3.88;;;11.60;40.60;;;;;;5006523;23;38981;-79
2023/05/30 05:16:48;;;;;;;12.38;4.10;;;11.70;45.80;;;;;;4880259;29;37134;-83
2023/05/30 05:19:15;;;;;;;9.82;3.20;;;11.60;29.80;;;;;;4890787;29;37260;-84
2023/05/30 05:25:08;;;;;;;11.27;3.37;;;11.70;31.70;;;;;;5390313;23;50626;-83
2023/05/30 05:44:02;;;;;;;12.45;4.05;;;11.80;35.10;;;;;;5522426;23;20051;-81
2023/05/30 05:46:28;;;;;;;11.80;3.80;;;11.70;35.90;;;;;;4913972;29;39938;-84
2023/05/30 05:58:26;;;;;;;13.10;3.72;;;11.70;23.60;;;;;;5536454;23;20028;-83
2023/05/30 06:03:28;;;;;;;11.88;3.63;;;11.80;29.70;;;;;;4353717;23;20042;-81
2023/05/30 06:09:34;;;;;;;16.45;4.30;;;11.80;18.80;;;;;;5952738;23;20021;31
2023/05/30 06:21:20;;;;;;;8.15;3.13;;;12.00;12.30;;;;;;5335379;23;20046;-83
2023/05/30 06:26:23;;;;;;;15.45;3.53;;;12.10;10.10;;;;;;5378361;23;20045;-82
2023/05/30 06:31:46;;;;;;;14.57;3.67;;;12.20;1.00;;;;;;5409350;23;20045;-82
2023/05/30 06:34:14;;;;;;;16.70;3.17;;;12.30;1.00;;;;;;5348374;23;39668;-82
2023/05/30 06:36:46;;;;;;;14.77;3.97;;;12.40;1.00;;;;;;4921555;29;37847;-82
2023/05/30 07:12:00;;;;;;;11.38;3.30;;;13.50;1.00;;;;;;5536388;23;20032;-81
2023/05/30 07:14:34;;;;;;;10.82;3.33;;;13.40;1.00;;;;;;4906966;28;47869;-83
2023/05/30 07:32:36;;;;;;;10.73;3.30;;;14.90;99.90;;;;;;5252487;23;20049;-83
2023/05/30 07:38:04;;;;;;;15.23;3.95;;;15.20;1.00;;;;;;4971883;23;20541;-83
2023/05/30 07:40:31;;;;;;;10.85;3.13;;;15.40;99.90;;;;;;4861105;29;38218;-84
2023/05/30 07:42:57;;;;;;;11.60;3.53;;;15.60;99.90;;;;;;4858853;29;39078;-85
2023/05/30 07:45:23;;;;;;;11.40;3.42;;;15.60;1.00;;;;;;4856694;29;37614;-82
2023/05/30 07:47:52;;;;;;;8.30;3.05;;;15.50;99.90;;;;;;4860287;29;38517;-84
2023/05/30 07:50:18;;;;;;;13.60;3.55;;;15.80;1.00;;;;;;4878074;29;39661;-84
2023/05/30 07:52:44;;;;;;;9.13;3.08;;;16.00;99.90;;;;;;4871373;29;38619;-85
2023/05/30 07:55:10;;;;;;;9.20;3.05;;;16.20;99.90;;;;;;4878308;29;38152;-85
2023/05/30 07:57:37;;;;;;;11.13;3.10;;;16.50;99.90;;;;;;4865789;29;39063;-84
2023/05/30 08:00:08;;;;;;;12.80;3.20;;;16.60;1.00;;;;;;4856090;29;39328;-85
2023/05/30 08:02:37;;;;;;;13.27;4.00;;;16.30;1.00;;;;;;4853708;29;37483;-85
2023/05/30 08:05:03;;;;;;;14.05;3.63;;;16.00;99.90;;;;;;4862810;29;37126;-86
2023/05/30 08:07:32;;;;;;;15.40;3.50;;;16.30;1.00;;;;;;4855516;29;36293;-86
2023/05/30 08:09:58;;;;;;;11.43;3.55;;;16.40;99.90;;;;;;4859626;29;37956;-87
2023/05/30 08:12:28;;;;;;;11.18;3.50;;;16.40;1.00;;;;;;4854881;29;38592;-85
2023/05/30 08:14:56;;;;;;;11.98;3.65;;;16.60;1.00;;;;;;4848679;29;36900;-84
2023/05/30 08:17:27;;;;;;;15.82;3.40;;;16.60;1.00;;;;;;4858761;29;36521;-84
2023/05/30 08:19:55;;;;;;;11.30;3.33;;;16.90;48.30;;;;;;4858969;29;37602;-87
2023/05/30 08:22:24;;;;;;;13.80;3.55;;;16.90;1.00;;;;;;4855292;29;37647;-88
2023/05/30 08:24:53;;;;;;;6.80;3.00;;;16.90;99.90;;;;;;4863458;29;39340;-87
2023/05/30 08:27:20;;;;;;;13.52;3.28;;;16.80;1.00;;;;;;4875197;29;37048;-85
2023/05/30 08:29:48;;;;;;;11.95;3.50;;;16.80;1.00;;;;;;4876804;29;39816;-86
2023/05/30 08:32:15;;;;;;;13.63;3.38;;;17.10;1.00;;;;;;4858837;29;38714;-85
2023/05/30 08:34:41;;;;;;;13.60;3.63;;;16.90;1.00;;;;;;4872224;29;38021;-87
2023/05/30 08:37:08;;;;;;;11.48;3.88;;;17.20;99.90;;;;;;4866663;29;36987;-88
2023/05/30 08:39:34;;;;;;;12.88;3.55;;;17.40;99.90;;;;;;4852211;29;37705;-87
2023/05/30 08:42:00;;;;;;;11.32;3.40;;;17.70;1.00;;;;;;4835420;29;38518;-88
2023/05/30 08:44:30;;;;;;;12.13;3.90;;;17.60;99.90;;;;;;4844151;29;46872;-86
2023/05/30 08:47:00;;;;;;;14.73;3.53;;;17.90;1.00;;;;;;4855423;29;36813;-88
2023/05/30 08:49:28;;;;;;;12.85;3.70;;;18.10;1.00;;;;;;4848518;29;39127;-87
2023/05/30 08:51:57;;;;;;;11.88;3.50;;;18.20;99.90;;;;;;4840174;29;37482;-86
2023/05/30 08:54:33;;;;;;;12.50;3.70;;;18.10;1.00;;;;;;4859261;29;38173;-87
2023/05/30 08:57:09;;;;;;;13.32;3.92;;;18.20;99.90;;;;;;4845482;29;37090;-86
2023/05/30 08:59:36;;;;;;;12.38;3.33;;;18.20;1.00;;;;;;4838856;29;47005;-85
2023/05/30 09:02:03;;;;;;;11.30;4.07;;;18.50;1.00;;;;;;4841119;29;37243;-86
2023/05/30 09:04:30;;;;;;;12.80;3.90;;;18.70;1.00;;;;;;4854455;29;37990;-87
2023/05/30 09:06:57;;;;;;;12.20;4.18;;;18.40;99.90;;;;;;4853513;29;37490;-87
2023/05/30 09:09:24;;;;;;;10.82;4.15;;;18.70;1.00;;;;;;4868705;29;38874;-87
2023/05/30 09:11:52;;;;;;;10.05;3.30;;;19.00;1.00;;;;;;4832717;29;37280;-87
2023/05/30 09:14:18;;;;;;;10.05;3.70;;;19.00;99.90;;;;;;4844036;29;37946;-88
2023/05/30 09:16:44;;;;;;;13.88;3.75;;;19.20;1.00;;;;;;4851618;29;36988;-88
2023/05/30 09:19:10;;;;;;;11.77;3.97;;;19.40;99.90;;;;;;4836632;29;37693;-86
2023/05/30 09:21:37;;;;;;;11.30;3.70;;;19.60;20.80;;;;;;4865465;29;37243;-87
2023/05/30 09:24:04;;;;;;;9.57;3.50;;;19.90;22.00;;;;;;4842384;29;38939;-87
2023/05/30 09:26:32;;;;;;;12.77;4.32;;;20.10;1.00;;;;;;4839943;29;36494;-88
2023/05/30 09:29:11;;;;;;;17.65;4.72;;;19.90;99.90;;;;;;4847556;29;37686;-86
2023/05/30 09:31:37;;;;;;;10.90;4.18;;;19.80;1.00;;;;;;4840402;29;47208;-87
2023/05/30 09:34:05;;;;;;;11.35;3.92;;;20.00;1.00;;;;;;4843049;29;39521;-88
2023/05/30 09:36:32;;;;;;;9.43;3.70;;;19.90;99.90;;;;;;4846585;29;37156;-87
2023/05/30 09:39:05;;;;;;;8.77;3.33;;;19.80;51.70;;;;;;4864554;29;38317;-88
2023/05/30 09:41:32;;;;;;;11.23;3.47;;;20.10;99.90;;;;;;4860383;29;48610;-87
2023/05/30 09:43:59;;;;;;;11.85;4.10;;;20.30;99.90;;;;;;4857608;29;36977;-85
2023/05/30 09:46:27;;;;;;;11.70;3.38;;;20.40;1.00;;;;;;4841912;29;38115;-88
2023/05/30 09:48:55;;;;;;;11.57;4.00;;;20.30;99.90;;;;;;4859203;29;39011;-86
2023/05/30 09:51:22;;;;;;;11.43;4.20;;;20.50;1.00;;;;;;4840725;29;37431;-83
2023/05/30 09:54:03;;;;;;;15.45;4.18;;;20.50;1.00;;;;;;4857392;29;38294;-85
2023/05/30 09:56:33;;;;;;;9.95;3.58;;;20.60;1.00;;;;;;4832603;29;47270;-85
2023/05/30 09:59:13;;;;;;;14.60;3.55;;;20.40;1.00;;;;;;4859054;29;38572;-87
2023/05/30 10:01:40;;;;;;;15.18;4.00;;;20.10;99.90;;;;;;4827501;29;47301;-84
2023/05/30 10:04:20;;;;;;;11.30;4.07;;;20.10;1.00;;;;;;4842172;29;37959;-86
2023/05/30 10:06:49;;;;;;;12.10;3.78;;;20.10;90.40;;;;;;4831285;29;38891;-86
2023/05/30 10:09:15;;;;;;;15.80;4.45;;;20.30;1.00;;;;;;4833835;29;38249;-84
2023/05/30 10:11:43;;;;;;;9.52;3.80;;;20.60;1.00;;;;;;4832099;29;38890;-85
2023/05/30 10:14:10;;;;;;;10.80;3.72;;;20.50;1.00;;;;;;4835564;29;37233;-86
2023/05/30 10:16:46;;;;;;;9.32;3.38;;;20.40;1.00;;;;;;4852233;29;38315;-91
2023/05/30 10:19:16;;;;;;;6.38;3.20;;;20.50;1.00;;;;;;4847494;29;37968;-86
2023/05/30 10:21:43;;;;;;;10.90;4.05;;;20.70;1.00;;;;;;4835036;29;39538;-85
2023/05/30 10:24:13;;;;;;;11.32;3.63;;;20.70;1.00;;;;;;4830422;29;39834;-86
2023/05/30 10:26:47;;;;;;;11.80;3.20;;;20.70;1.00;;;;;;4838406;29;36338;-85
2023/05/30 10:29:14;;;;;;;12.50;3.75;;;21.00;1.00;;;;;;4835793;29;39206;-82
2023/05/30 10:31:42;;;;;;;13.52;3.38;;;20.70;1.00;;;;;;4834161;29;38538;-85
2023/05/30 10:34:12;;;;;;;10.65;3.40;;;21.00;1.00;;;;;;4835497;29;37028;-85
2023/05/30 10:36:42;;;;;;;12.65;3.70;;;20.70;1.00;;;;;;4833519;29;36384;-85
2023/05/30 10:39:37;;;;;;;11.95;3.65;;;20.40;1.00;;;;;;4833065;29;37922;-85
2023/05/30 10:42:30;;;;;;;9.27;3.17;;;20.40;1.00;;;;;;4817930;29;37817;-84
2023/05/30 10:45:25;;;;;;;8.80;2.88;;;20.20;1.00;;;;;;4841790;29;37480;-82
2023/05/30 10:48:09;;;;;;;8.20;3.25;;;20.40;1.00;;;;;;4830445;29;45905;-84
2023/05/30 10:50:42;;;;;;;11.15;3.50;;;20.90;1.00;;;;;;4823766;29;49385;-84
2023/05/30 10:53:15;;;;;;;10.38;3.38;;;20.70;1.00;;;;;;4832239;29;37284;-84
2023/05/30 10:55:45;;;;;;;10.05;3.45;;;20.90;1.00;;;;;;4842882;29;35768;-83
2023/05/30 10:58:42;;;;;;;11.30;3.30;;;21.00;1.00;;;;;;4832862;29;36016;-84
2023/05/30 11:01:25;;;;;;;9.40;3.33;;;21.20;1.00;;;;;;4834039;29;37684;-85
2023/05/30 11:04:15;;;;;;;8.55;2.90;;;21.20;1.00;;;;;;4848633;29;38629;-82
2023/05/30 11:06:45;;;;;;;10.00;2.90;;;20.90;1.00;;;;;;4832012;29;48557;-83
2023/05/30 11:09:18;;;;;;;11.65;3.83;;;20.90;1.00;;;;;;4836327;29;36074;-81
2023/05/30 11:11:57;;;;;;;9.93;2.92;;;20.70;1.00;;;;;;4845588;29;39241;-84
2023/05/30 11:14:29;;;;;;;7.97;3.15;;;20.80;1.00;;;;;;4831884;29;37508;-82
2023/05/30 11:17:19;;;;;;;8.98;3.50;;;20.90;1.00;;;;;;4846112;29;38022;-85
2023/05/30 11:19:49;;;;;;;6.53;3.22;;;20.30;1.00;;;;;;4832366;29;47276;-86
2023/05/30 11:22:16;;;;;;;8.23;3.03;;;20.30;1.00;;;;;;4852605;29;38471;-86
2023/05/30 11:24:43;;;;;;;7.78;3.33;;;20.50;1.00;;;;;;4850238;29;38016;-84
2023/05/30 11:27:13;;;;;;;8.30;3.28;;;20.70;1.00;;;;;;4848368;29;36490;-86
2023/05/30 11:29:57;;;;;;;9.63;3.20;;;20.70;1.00;;;;;;4844901;29;37012;-84
2023/05/30 11:32:28;;;;;;;6.70;3.03;;;20.70;1.00;;;;;;4832343;29;38438;-85
2023/05/30 11:34:58;;;;;;;6.88;3.47;;;20.90;1.00;;;;;;4847214;29;37241;-85
2023/05/30 11:37:25;;;;;;;5.65;2.78;;;20.70;1.00;;;;;;4857450;29;36968;-85
2023/05/30 11:39:55;;;;;;;8.57;2.90;;;20.50;1.00;;;;;;4857566;29;37506;-86
2023/05/30 11:42:21;;;;;;;6.55;2.75;;;20.40;99.90;;;;;;4866540;29;37677;-84
2023/05/30 11:44:48;;;;;;;9.70;3.63;;;19.90;14.30;;;;;;4858088;29;37140;-85
2023/05/30 11:47:15;;;;;;;4.30;2.47;;;19.90;99.90;;;;;;4870988;29;37787;-86
2023/05/30 11:49:41;;;;;;;8.30;2.92;;;19.70;99.90;;;;;;4870803;29;36897;-86
2023/05/30 11:52:08;;;;;;;8.82;3.13;;;19.60;99.90;;;;;;4847333;29;37611;-86
2023/05/30 11:54:34;;;;;;;10.30;3.25;;;19.50;1.00;;;;;;4843306;29;37010;-85
2023/05/30 11:57:03;;;;;;;6.47;2.28;;;20.00;99.90;;;;;;4869021;29;38058;-85
2023/05/30 11:59:29;;;;;;;6.70;2.70;;;20.00;99.90;;;;;;4853606;29;47174;-85
2023/05/30 12:01:57;;;;;;;7.57;2.90;;;19.90;99.90;;;;;;4856704;29;37131;-87
2023/05/30 12:04:26;;;;;;;10.00;3.28;;;20.00;1.00;;;;;;4853553;29;37463;-87
2023/05/30 12:06:56;;;;;;;7.10;2.95;;;19.70;1.00;;;;;;4858064;29;37472;-87
2023/05/30 12:09:22;;;;;;;13.63;3.97;;;19.50;1.00;;;;;;4859796;29;36207;-88
2023/05/30 12:11:58;;;;;;;4.97;3.22;;;19.20;1.00;;;;;;4873276;29;39537;-87
2023/05/30 12:14:53;;;;;;;10.02;3.55;;;18.90;99.90;;;;;;4866778;29;37224;-88
2023/05/30 12:17:24;;;;;;;8.75;3.53;;;19.20;33.60;;;;;;4862291;29;37134;-87
2023/05/30 12:19:55;;;;;;;8.15;3.65;;;19.20;1.00;;;;;;4875577;29;37883;-88
2023/05/30 12:22:22;;;;;;;5.40;3.07;;;19.70;1.00;;;;;;4860269;29;37938;-86
2023/05/30 12:24:49;;;;;;;9.00;3.35;;;19.80;1.00;;;;;;4882906;29;39378;-88
2023/05/30 12:27:17;;;;;;;5.43;3.33;;;19.50;99.90;;;;;;4860668;29;38285;-89
2023/05/30 12:29:43;;;;;;;4.05;2.88;;;19.20;1.00;;;;;;4877409;29;37295;-88
2023/05/30 12:32:09;;;;;;;3.42;2.70;;;18.90;1.00;;;;;;4856966;29;37547;-84
2023/05/30 12:34:45;;;;;;;10.13;2.85;;;18.90;99.90;;;;;;4860968;29;38939;-83
2023/05/30 12:37:15;;;;;;;7.38;2.75;;;19.10;99.90;;;;;;4863475;29;38411;-84
2023/05/30 12:39:59;;;;;;;4.38;2.63;;;19.00;1.00;;;;;;4853462;29;36400;-85
2023/05/30 12:42:28;;;;;;;3.83;2.50;;;19.00;1.00;;;;;;4831179;29;38183;-85
2023/05/30 12:44:56;;;;;;;5.75;2.80;;;18.50;99.90;;;;;;4852580;29;38979;-85
2023/05/30 12:47:26;;;;;;;5.22;3.08;;;18.20;99.90;;;;;;4864248;29;37720;-85
2023/05/30 12:49:52;;;;;;;6.13;2.67;;;17.90;99.90;;;;;;4857713;29;35825;-85
2023/05/30 12:52:21;;;;;;;7.13;2.92;;;17.70;1.00;;;;;;4855929;29;38758;-87
2023/05/30 12:54:48;;;;;;;4.72;3.00;;;17.80;99.90;;;;;;4832922;29;37678;-86
2023/05/30 12:57:16;;;;;;;7.55;3.65;;;17.60;1.00;;;;;;4843957;29;38862;-87
2023/05/30 12:59:42;;;;;;;4.70;2.90;;;17.40;1.00;;;;;;4865535;29;36877;-87
2023/05/30 13:02:10;;;;;;;9.13;3.67;;;17.30;96.50;;;;;;4840175;29;37751;-87
2023/05/30 13:04:40;;;;;;;5.82;3.38;;;17.30;1.00;;;;;;4853075;29;37477;-87
2023/05/30 13:07:11;;;;;;;7.00;3.10;;;17.30;1.00;;;;;;4859635;29;39103;-86
2023/05/30 13:09:38;;;;;;;4.38;3.20;;;17.30;99.90;;;;;;4839716;29;36237;-84
2023/05/30 13:12:09;;;;;;;5.65;2.97;;;17.20;1.00;;;;;;4835117;29;37723;-86
2023/05/30 13:14:36;;;;;;;4.28;2.97;;;17.20;1.00;;;;;;4858301;29;38247;-88
2023/05/30 13:17:03;;;;;;;4.97;3.03;;;17.30;1.00;;;;;;4845493;29;38255;-86
2023/05/30 13:19:30;;;;;;;5.38;3.13;;;17.30;1.00;;;;;;4854169;29;48617;-87
2023/05/30 13:21:56;;;;;;;2.90;2.17;;;17.30;99.90;;;;;;4859466;29;38504;-83
2023/05/30 13:24:23;;;;;;;4.78;3.42;;;17.50;99.90;;;;;;4857119;29;38765;-85
2023/05/30 13:26:49;;;;;;;4.35;2.70;;;17.60;1.00;;;;;;4846979;29;36924;-84
2023/05/30 13:29:16;;;;;;;3.90;2.85;;;17.60;1.00;;;;;;4836291;29;36772;-83
2023/05/30 13:31:43;;;;;;;6.13;2.95;;;17.60;1.00;;;;;;4847524;29;38080;-83
2023/05/30 13:34:09;;;;;;;8.60;3.40;;;17.50;1.00;;;;;;4847491;29;38605;-82
2023/05/30 13:36:36;;;;;;;4.13;2.60;;;17.40;99.90;;;;;;4857337;29;38811;-83
2023/05/30 13:39:03;;;;;;;5.10;3.47;;;17.50;43.00;;;;;;4836403;29;37263;-82
2023/05/30 13:41:29;;;;;;;10.07;3.50;;;17.50;1.00;;;;;;4837705;29;38830;-83
2023/05/30 13:43:57;;;;;;;5.55;2.90;;;17.50;99.90;;;;;;4836882;29;38187;-85
2023/05/30 13:46:25;;;;;;;4.07;2.72;;;17.60;1.00;;;;;;4851266;29;38421;-82
2023/05/30 13:48:52;;;;;;;5.53;3.13;;;17.40;99.90;;;;;;4834143;29;36073;-83
2023/05/30 13:51:18;;;;;;;3.67;2.75;;;17.40;80.70;;;;;;4852490;29;39542;-84
2023/05/30 13:53:46;;;;;;;3.90;2.47;;;17.30;1.00;;;;;;4832537;29;38560;-82
2023/05/30 13:56:12;;;;;;;3.75;2.45;;;17.30;99.90;;;;;;4847084;29;39272;-85
2023/05/30 13:58:38;;;;;;;6.25;2.78;;;17.30;1.00;;;;;;4849165;29;37253;-81
2023/05/30 14:01:04;;;;;;;5.38;2.47;;;17.30;99.90;;;;;;4850518;29;38356;-81
2023/05/30 14:03:31;;;;;;;2.83;2.30;;;17.10;1.00;;;;;;4855233;29;39016;-82
2023/05/30 14:05:58;;;;;;;3.63;2.30;;;17.30;1.00;;;;;;4838569;29;36715;-82
2023/05/30 14:08:24;;;;;;;3.90;2.08;;;17.20;99.90;;;;;;4852564;29;36113;-82
2023/05/30 14:10:51;;;;;;;5.85;2.00;;;17.10;99.90;;;;;;4854664;29;40113;-84
2023/05/30 14:13:17;;;;;;;2.63;1.77;;;17.10;99.90;;;;;;4866669;29;37279;-82
2023/05/30 14:15:43;;;;;;;2.17;1.83;;;17.20;1.00;;;;;;4844613;29;36895;-81
2023/05/30 14:18:09;;;;;;;3.80;1.98;;;17.40;1.00;;;;;;4839159;29;37597;-81
2023/05/30 14:20:35;;;;;;;1.95;1.80;;;17.60;1.00;;;;;;4855133;29;40054;-82
2023/05/30 14:23:02;;;;;;;3.40;1.85;;;17.70;1.00;;;;;;4848716;29;37252;-80
2023/05/30 14:25:28;;;;;;;3.00;1.83;;;17.80;1.00;;;;;;4838348;29;36938;-81
2023/05/30 14:27:54;;;;;;;3.15;1.90;;;17.80;99.90;;;;;;4851841;29;37079;-82
2023/05/30 14:30:20;;;;;;;2.47;1.83;;;18.00;1.00;;;;;;4860978;29;38757;-83
2023/05/30 14:32:48;;;;;;;6.85;1.60;;;17.90;1.00;;;;;;4848858;29;40082;-84
2023/05/30 14:35:14;;;;;;;3.03;1.80;;;17.90;1.00;;;;;;4850699;29;37999;-86
2023/05/30 14:37:40;;;;;;;3.70;1.90;;;17.90;1.00;;;;;;4847683;29;35710;-85